Airfield :
LOGIN :

Register | Disclaimer

   EN    FR    IT 

 










Legend :    VFR   Marginal VFR   IFR   Intensive IFR   Very Intensive IFR
Visi :
Ceiling :
>= 8 km
>= 3000ft
5 to 8 km
1000 to 3000 ft
1500m to 5 km
500 to 1000 ft
800 to 1500m
200 to 500 ft
< 800m
< 200 ft
Symbols :   Thunderstorms  Fog  Heavy snow  Heavy precipitations  Wind > 20 kt
SIGMETs :     Misc.  Thunderstorms  Icing  Turbulence  Mountain Waves  Volcanic Ashes






- Airport Elevation : 645 ft
- IATA code : DLE


LFGJ - Dole Tavaux

CURRENT METAR :
  • 291130Z AUTO 19004KT 150V260 9999 -RA SCT013/// BKN029/// BKN056/// ///CB 13/10 Q1003 TEMPO 4000 SHRA BKN004 SCT020TCU

EXPIRED METARs :
  • 291100Z AUTO 20008KT 9999 SCT015/// BKN022/// BKN044/// //////CB 13/11 Q1003 TEMPO 4000 SHRA BKN004 SCT020TCU
  • 291030Z AUTO 21008KT 9999 3600 BKN013/// BKN020/// OVC058/// //////CB 13/10 Q1002 TEMPO 4000 SHRA BKN004 SCT020TCU
  • 291000Z AUTO 21008KT 150V250 9999 BKN010/// BKN015/// BKN035/// //////CB 12/10 Q1002 TEMPO 4000 SHRA BKN004 SCT020TCU
  • 290930Z AUTO 21009KT 9999 SCT009/// BKN016/// BKN021/// //////TCU 12/10 Q1003 TEMPO 4000 SHRA BKN004 SCT020TCU
  • 290900Z AUTO 20009KT 9999 BKN008/// BKN014/// BKN029/// //////TCU 12/10 Q1002 TEMPO 4000 SHRA BKN004 SCT020TCU

TAF TAF LFGJ
Valid from the 29 at 09:00 until the 29 at 18:00 UTC


290800Z 2909/2918 24006KT 9999 FEW015 BKN030
TEMPO 2909/2918 4000 SHRA BKN004 SCT020TCU



MET'MAP, your aeronautical weather chart ! - Copyright ORBIFLY December 2007 - Disclaimer

ORBIFLY MET'MAP TEAM :

Programming & Development : Alexandra Zaïnal
Original concept : Baudouin d'Aumeries
Technical & hardware support : Manuel Goepfert
Assistance : Marc-Olivier Méhu




SOURCES & CREDITS :

   NOAA